sensor_id;sensor_type;location;lat;lon;timestamp;P1;durP1;ratioP1;P2;durP2;ratioP2
13349;SDS011;6744;53.190;6.576;2023-05-24T00:02:03;9.97;;;3.33;;
13349;SDS011;6744;53.190;6.576;2023-05-24T00:04:30;10.90;;;4.03;;
13349;SDS011;6744;53.190;6.576;2023-05-24T00:06:56;10.67;;;4.27;;
13349;SDS011;6744;53.190;6.576;2023-05-24T00:09:22;12.87;;;3.97;;
13349;SDS011;6744;53.190;6.576;2023-05-24T00:11:47;9.37;;;3.83;;
13349;SDS011;6744;53.190;6.576;2023-05-24T00:14:12;12.00;;;3.93;;
13349;SDS011;6744;53.190;6.576;2023-05-24T00:16:38;11.07;;;3.77;;
13349;SDS011;6744;53.190;6.576;2023-05-24T00:19:03;16.03;;;4.30;;
13349;SDS011;6744;53.190;6.576;2023-05-24T00:21:29;11.20;;;4.03;;
13349;SDS011;6744;53.190;6.576;2023-05-24T00:23:56;11.10;;;4.10;;
13349;SDS011;6744;53.190;6.576;2023-05-24T00:26:21;12.37;;;3.80;;
13349;SDS011;6744;53.190;6.576;2023-05-24T00:28:47;10.37;;;3.77;;
13349;SDS011;6744;53.190;6.576;2023-05-24T00:31:12;10.30;;;3.90;;
13349;SDS011;6744;53.190;6.576;2023-05-24T00:33:37;10.37;;;3.47;;
13349;SDS011;6744;53.190;6.576;2023-05-24T00:36:03;10.13;;;3.97;;
13349;SDS011;6744;53.190;6.576;2023-05-24T00:38:28;12.00;;;3.83;;
13349;SDS011;6744;53.190;6.576;2023-05-24T00:40:53;12.90;;;4.20;;
13349;SDS011;6744;53.190;6.576;2023-05-24T00:43:24;9.03;;;3.80;;
13349;SDS011;6744;53.190;6.576;2023-05-24T00:45:53;9.30;;;3.60;;
13349;SDS011;6744;53.190;6.576;2023-05-24T00:48:38;10.50;;;4.00;;
13349;SDS011;6744;53.190;6.576;2023-05-24T00:51:03;13.97;;;4.40;;
13349;SDS011;6744;53.190;6.576;2023-05-24T00:53:29;13.10;;;4.97;;
13349;SDS011;6744;53.190;6.576;2023-05-24T00:55:55;10.70;;;3.87;;
13349;SDS011;6744;53.190;6.576;2023-05-24T00:58:20;11.67;;;4.07;;
13349;SDS011;6744;53.190;6.576;2023-05-24T01:00:51;9.27;;;3.83;;
13349;SDS011;6744;53.190;6.576;2023-05-24T01:03:18;10.70;;;4.00;;
13349;SDS011;6744;53.190;6.576;2023-05-24T01:05:44;9.40;;;4.00;;
13349;SDS011;6744;53.190;6.576;2023-05-24T01:08:13;11.20;;;4.00;;
13349;SDS011;6744;53.190;6.576;2023-05-24T01:10:55;8.97;;;4.00;;
13349;SDS011;6744;53.190;6.576;2023-05-24T01:16:14;11.03;;;3.80;;
13349;SDS011;6744;53.190;6.576;2023-05-24T01:18:44;13.53;;;3.93;;
13349;SDS011;6744;53.190;6.576;2023-05-24T01:27:05;12.83;;;4.30;;
13349;SDS011;6744;53.190;6.576;2023-05-24T01:29:32;11.87;;;3.63;;
13349;SDS011;6744;53.190;6.576;2023-05-24T01:31:59;13.43;;;4.90;;
13349;SDS011;6744;53.190;6.576;2023-05-24T01:34:25;13.43;;;4.47;;
13349;SDS011;6744;53.190;6.576;2023-05-24T01:36:50;8.77;;;3.87;;
13349;SDS011;6744;53.190;6.576;2023-05-24T01:39:16;10.93;;;3.60;;
13349;SDS011;6744;53.190;6.576;2023-05-24T01:47:13;16.27;;;4.20;;
13349;SDS011;6744;53.190;6.576;2023-05-24T01:49:48;11.90;;;3.77;;
13349;SDS011;6744;53.190;6.576;2023-05-24T01:52:15;16.57;;;4.50;;
13349;SDS011;6744;53.190;6.576;2023-05-24T01:54:42;14.40;;;3.67;;
13349;SDS011;6744;53.190;6.576;2023-05-24T01:57:09;8.77;;;3.37;;
13349;SDS011;6744;53.190;6.576;2023-05-24T01:59:35;10.67;;;3.93;;
13349;SDS011;6744;53.190;6.576;2023-05-24T02:02:01;11.60;;;4.20;;
13349;SDS011;6744;53.190;6.576;2023-05-24T02:04:27;16.43;;;4.43;;
13349;SDS011;6744;53.190;6.576;2023-05-24T02:06:52;12.37;;;3.80;;
13349;SDS011;6744;53.190;6.576;2023-05-24T02:09:17;10.77;;;3.60;;
13349;SDS011;6744;53.190;6.576;2023-05-24T02:11:43;11.20;;;3.80;;
13349;SDS011;6744;53.190;6.576;2023-05-24T02:14:08;15.70;;;4.40;;
13349;SDS011;6744;53.190;6.576;2023-05-24T02:16:33;10.67;;;3.70;;
13349;SDS011;6744;53.190;6.576;2023-05-24T02:18:59;11.00;;;3.73;;
13349;SDS011;6744;53.190;6.576;2023-05-24T02:21:24;9.63;;;3.43;;
13349;SDS011;6744;53.190;6.576;2023-05-24T02:23:49;10.73;;;3.43;;
13349;SDS011;6744;53.190;6.576;2023-05-24T02:26:15;11.83;;;3.83;;
13349;SDS011;6744;53.190;6.576;2023-05-24T02:28:42;11.47;;;4.23;;
13349;SDS011;6744;53.190;6.576;2023-05-24T02:31:08;11.63;;;3.80;;
13349;SDS011;6744;53.190;6.576;2023-05-24T02:33:33;11.17;;;3.57;;
13349;SDS011;6744;53.190;6.576;2023-05-24T02:35:59;8.63;;;3.33;;
13349;SDS011;6744;53.190;6.576;2023-05-24T02:38:25;14.63;;;3.87;;
13349;SDS011;6744;53.190;6.576;2023-05-24T02:40:50;14.50;;;3.43;;
13349;SDS011;6744;53.190;6.576;2023-05-24T02:43:16;11.23;;;3.50;;
13349;SDS011;6744;53.190;6.576;2023-05-24T02:45:44;13.37;;;3.80;;
13349;SDS011;6744;53.190;6.576;2023-05-24T02:48:09;13.37;;;3.73;;
13349;SDS011;6744;53.190;6.576;2023-05-24T02:50:35;13.53;;;3.67;;
13349;SDS011;6744;53.190;6.576;2023-05-24T02:53:00;10.50;;;3.80;;
13349;SDS011;6744;53.190;6.576;2023-05-24T02:55:26;15.03;;;4.00;;
13349;SDS011;6744;53.190;6.576;2023-05-24T02:57:52;11.47;;;3.97;;
13349;SDS011;6744;53.190;6.576;2023-05-24T03:00:18;11.87;;;3.57;;
13349;SDS011;6744;53.190;6.576;2023-05-24T03:02:44;11.67;;;3.57;;
13349;SDS011;6744;53.190;6.576;2023-05-24T03:05:17;10.50;;;3.60;;
13349;SDS011;6744;53.190;6.576;2023-05-24T03:07:42;12.37;;;3.43;;
13349;SDS011;6744;53.190;6.576;2023-05-24T03:10:08;11.07;;;3.60;;
13349;SDS011;6744;53.190;6.576;2023-05-24T03:12:33;12.47;;;3.60;;
13349;SDS011;6744;53.190;6.576;2023-05-24T03:14:59;16.97;;;4.37;;
13349;SDS011;6744;53.190;6.576;2023-05-24T03:17:24;14.00;;;3.33;;
13349;SDS011;6744;53.190;6.576;2023-05-24T03:19:50;13.00;;;3.80;;
13349;SDS011;6744;53.190;6.576;2023-05-24T03:22:16;12.87;;;3.73;;
13349;SDS011;6744;53.190;6.576;2023-05-24T03:24:42;10.57;;;3.13;;
13349;SDS011;6744;53.190;6.576;2023-05-24T03:27:07;17.40;;;4.13;;
13349;SDS011;6744;53.190;6.576;2023-05-24T03:29:33;10.83;;;3.63;;
13349;SDS011;6744;53.190;6.576;2023-05-24T03:31:58;10.90;;;3.43;;
13349;SDS011;6744;53.190;6.576;2023-05-24T03:34:23;11.07;;;3.57;;
13349;SDS011;6744;53.190;6.576;2023-05-24T03:36:49;11.23;;;3.50;;
13349;SDS011;6744;53.190;6.576;2023-05-24T03:39:14;11.80;;;3.20;;
13349;SDS011;6744;53.190;6.576;2023-05-24T03:41:39;16.00;;;3.80;;
13349;SDS011;6744;53.190;6.576;2023-05-24T03:44:05;12.70;;;3.50;;
13349;SDS011;6744;53.190;6.576;2023-05-24T03:46:30;10.60;;;3.57;;
13349;SDS011;6744;53.190;6.576;2023-05-24T03:48:55;11.83;;;3.17;;
13349;SDS011;6744;53.190;6.576;2023-05-24T03:51:23;12.17;;;3.13;;
13349;SDS011;6744;53.190;6.576;2023-05-24T03:53:53;10.83;;;3.77;;
13349;SDS011;6744;53.190;6.576;2023-05-24T03:56:20;6.33;;;3.07;;
13349;SDS011;6744;53.190;6.576;2023-05-24T03:58:46;14.43;;;3.37;;
13349;SDS011;6744;53.190;6.576;2023-05-24T04:01:11;13.03;;;3.57;;
13349;SDS011;6744;53.190;6.576;2023-05-24T04:03:37;14.10;;;3.57;;
13349;SDS011;6744;53.190;6.576;2023-05-24T04:06:03;11.30;;;3.47;;
13349;SDS011;6744;53.190;6.576;2023-05-24T04:08:28;14.37;;;3.97;;
13349;SDS011;6744;53.190;6.576;2023-05-24T04:10:53;10.57;;;3.23;;
13349;SDS011;6744;53.190;6.576;2023-05-24T04:13:19;12.00;;;3.73;;
13349;SDS011;6744;53.190;6.576;2023-05-24T04:15:44;10.83;;;3.47;;
13349;SDS011;6744;53.190;6.576;2023-05-24T04:18:10;12.43;;;3.30;;
13349;SDS011;6744;53.190;6.576;2023-05-24T04:20:35;12.77;;;3.70;;
13349;SDS011;6744;53.190;6.576;2023-05-24T04:23:02;12.83;;;3.87;;
13349;SDS011;6744;53.190;6.576;2023-05-24T04:25:27;12.57;;;3.80;;
13349;SDS011;6744;53.190;6.576;2023-05-24T04:27:53;12.80;;;3.60;;
13349;SDS011;6744;53.190;6.576;2023-05-24T04:30:20;12.63;;;3.33;;
13349;SDS011;6744;53.190;6.576;2023-05-24T04:32:46;14.30;;;3.60;;
13349;SDS011;6744;53.190;6.576;2023-05-24T04:35:11;16.40;;;4.03;;
13349;SDS011;6744;53.190;6.576;2023-05-24T04:37:36;13.67;;;3.70;;
13349;SDS011;6744;53.190;6.576;2023-05-24T04:40:02;11.07;;;3.50;;
13349;SDS011;6744;53.190;6.576;2023-05-24T04:42:29;13.53;;;3.80;;
13349;SDS011;6744;53.190;6.576;2023-05-24T04:44:55;11.20;;;4.13;;
13349;SDS011;6744;53.190;6.576;2023-05-24T04:47:21;12.67;;;4.23;;
13349;SDS011;6744;53.190;6.576;2023-05-24T04:49:46;9.70;;;3.03;;
13349;SDS011;6744;53.190;6.576;2023-05-24T04:52:12;11.80;;;3.93;;
13349;SDS011;6744;53.190;6.576;2023-05-24T04:54:37;8.20;;;3.13;;
13349;SDS011;6744;53.190;6.576;2023-05-24T04:57:02;14.90;;;4.83;;
13349;SDS011;6744;53.190;6.576;2023-05-24T04:59:28;14.23;;;4.20;;
13349;SDS011;6744;53.190;6.576;2023-05-24T05:01:53;12.17;;;4.10;;
13349;SDS011;6744;53.190;6.576;2023-05-24T05:04:18;12.57;;;3.73;;
13349;SDS011;6744;53.190;6.576;2023-05-24T05:06:44;14.83;;;3.83;;
13349;SDS011;6744;53.190;6.576;2023-05-24T05:09:09;14.77;;;4.27;;
13349;SDS011;6744;53.190;6.576;2023-05-24T05:11:37;13.33;;;3.93;;
13349;SDS011;6744;53.190;6.576;2023-05-24T05:14:02;12.93;;;3.60;;
13349;SDS011;6744;53.190;6.576;2023-05-24T05:16:28;11.00;;;3.17;;
13349;SDS011;6744;53.190;6.576;2023-05-24T05:18:54;13.93;;;3.50;;
13349;SDS011;6744;53.190;6.576;2023-05-24T05:21:19;8.40;;;3.20;;
13349;SDS011;6744;53.190;6.576;2023-05-24T05:23:44;11.70;;;3.40;;
13349;SDS011;6744;53.190;6.576;2023-05-24T05:26:10;14.57;;;3.90;;
13349;SDS011;6744;53.190;6.576;2023-05-24T05:28:36;13.17;;;4.03;;
13349;SDS011;6744;53.190;6.576;2023-05-24T05:31:01;10.03;;;3.77;;
13349;SDS011;6744;53.190;6.576;2023-05-24T05:33:27;12.90;;;3.77;;
13349;SDS011;6744;53.190;6.576;2023-05-24T05:35:52;11.87;;;3.53;;
13349;SDS011;6744;53.190;6.576;2023-05-24T05:38:17;13.37;;;3.77;;
13349;SDS011;6744;53.190;6.576;2023-05-24T05:40:43;13.83;;;4.20;;
13349;SDS011;6744;53.190;6.576;2023-05-24T05:43:08;13.43;;;3.77;;
13349;SDS011;6744;53.190;6.576;2023-05-24T05:45:33;11.77;;;4.03;;
13349;SDS011;6744;53.190;6.576;2023-05-24T05:48:05;11.60;;;3.80;;
13349;SDS011;6744;53.190;6.576;2023-05-24T05:50:30;13.03;;;3.80;;
13349;SDS011;6744;53.190;6.576;2023-05-24T05:52:55;15.00;;;4.30;;
13349;SDS011;6744;53.190;6.576;2023-05-24T05:55:32;13.53;;;3.67;;
13349;SDS011;6744;53.190;6.576;2023-05-24T05:57:58;14.70;;;4.20;;
13349;SDS011;6744;53.190;6.576;2023-05-24T06:00:26;11.50;;;3.80;;
13349;SDS011;6744;53.190;6.576;2023-05-24T06:02:51;12.43;;;4.00;;
13349;SDS011;6744;53.190;6.576;2023-05-24T06:05:17;11.60;;;3.67;;
13349;SDS011;6744;53.190;6.576;2023-05-24T06:07:43;14.77;;;3.87;;
13349;SDS011;6744;53.190;6.576;2023-05-24T06:10:09;15.63;;;4.23;;
13349;SDS011;6744;53.190;6.576;2023-05-24T06:12:35;14.40;;;4.17;;
13349;SDS011;6744;53.190;6.576;2023-05-24T06:15:01;12.60;;;3.93;;
13349;SDS011;6744;53.190;6.576;2023-05-24T06:17:30;12.63;;;3.40;;
13349;SDS011;6744;53.190;6.576;2023-05-24T06:19:55;8.37;;;3.33;;
13349;SDS011;6744;53.190;6.576;2023-05-24T06:22:21;10.50;;;3.50;;
13349;SDS011;6744;53.190;6.576;2023-05-24T06:24:46;11.97;;;3.17;;
13349;SDS011;6744;53.190;6.576;2023-05-24T06:27:13;10.07;;;3.13;;
13349;SDS011;6744;53.190;6.576;2023-05-24T06:29:38;10.03;;;2.90;;
13349;SDS011;6744;53.190;6.576;2023-05-24T06:32:04;9.90;;;3.00;;
13349;SDS011;6744;53.190;6.576;2023-05-24T06:34:29;10.07;;;2.97;;
13349;SDS011;6744;53.190;6.576;2023-05-24T06:36:55;10.37;;;3.57;;
13349;SDS011;6744;53.190;6.576;2023-05-24T06:39:20;6.73;;;2.50;;
13349;SDS011;6744;53.190;6.576;2023-05-24T06:41:45;12.13;;;3.30;;
13349;SDS011;6744;53.190;6.576;2023-05-24T06:44:11;7.87;;;3.00;;
13349;SDS011;6744;53.190;6.576;2023-05-24T06:46:36;8.40;;;2.60;;
13349;SDS011;6744;53.190;6.576;2023-05-24T06:49:02;9.20;;;2.67;;
13349;SDS011;6744;53.190;6.576;2023-05-24T06:51:27;11.03;;;3.27;;
13349;SDS011;6744;53.190;6.576;2023-05-24T06:53:53;8.10;;;2.67;;
13349;SDS011;6744;53.190;6.576;2023-05-24T06:56:21;6.77;;;2.80;;
13349;SDS011;6744;53.190;6.576;2023-05-24T06:58:47;11.47;;;3.30;;
13349;SDS011;6744;53.190;6.576;2023-05-24T07:01:12;10.03;;;3.30;;
13349;SDS011;6744;53.190;6.576;2023-05-24T07:03:38;10.10;;;2.93;;
13349;SDS011;6744;53.190;6.576;2023-05-24T07:06:03;11.33;;;3.40;;
13349;SDS011;6744;53.190;6.576;2023-05-24T07:08:29;10.73;;;2.90;;
13349;SDS011;6744;53.190;6.576;2023-05-24T07:10:54;8.93;;;3.03;;
13349;SDS011;6744;53.190;6.576;2023-05-24T07:13:20;9.90;;;3.20;;
13349;SDS011;6744;53.190;6.576;2023-05-24T07:15:46;9.97;;;2.93;;
13349;SDS011;6744;53.190;6.576;2023-05-24T07:18:11;11.50;;;3.40;;
13349;SDS011;6744;53.190;6.576;2023-05-24T07:20:37;9.37;;;3.17;;
13349;SDS011;6744;53.190;6.576;2023-05-24T07:23:02;11.23;;;3.50;;
13349;SDS011;6744;53.190;6.576;2023-05-24T07:25:28;9.33;;;3.10;;
13349;SDS011;6744;53.190;6.576;2023-05-24T07:27:54;13.03;;;3.50;;
13349;SDS011;6744;53.190;6.576;2023-05-24T07:30:19;12.43;;;3.07;;
13349;SDS011;6744;53.190;6.576;2023-05-24T07:32:45;10.40;;;2.93;;
13349;SDS011;6744;53.190;6.576;2023-05-24T07:35:11;8.50;;;3.00;;
13349;SDS011;6744;53.190;6.576;2023-05-24T07:37:40;8.93;;;2.67;;
13349;SDS011;6744;53.190;6.576;2023-05-24T07:40:06;9.83;;;3.00;;
13349;SDS011;6744;53.190;6.576;2023-05-24T07:42:36;8.73;;;3.10;;
13349;SDS011;6744;53.190;6.576;2023-05-24T07:45:02;8.07;;;2.93;;
13349;SDS011;6744;53.190;6.576;2023-05-24T07:47:27;7.63;;;3.23;;
13349;SDS011;6744;53.190;6.576;2023-05-24T07:49:52;11.73;;;3.73;;
13349;SDS011;6744;53.190;6.576;2023-05-24T07:52:18;9.87;;;3.60;;
13349;SDS011;6744;53.190;6.576;2023-05-24T07:54:44;8.93;;;2.83;;
13349;SDS011;6744;53.190;6.576;2023-05-24T07:57:09;9.67;;;3.43;;
13349;SDS011;6744;53.190;6.576;2023-05-24T07:59:35;8.83;;;3.10;;
13349;SDS011;6744;53.190;6.576;2023-05-24T08:02:00;9.23;;;3.10;;
13349;SDS011;6744;53.190;6.576;2023-05-24T08:04:32;11.37;;;3.17;;
13349;SDS011;6744;53.190;6.576;2023-05-24T08:06:58;11.03;;;3.30;;
13349;SDS011;6744;53.190;6.576;2023-05-24T08:09:25;6.30;;;2.60;;
13349;SDS011;6744;53.190;6.576;2023-05-24T08:11:52;8.27;;;2.47;;
13349;SDS011;6744;53.190;6.576;2023-05-24T08:14:21;7.43;;;2.87;;
13349;SDS011;6744;53.190;6.576;2023-05-24T08:16:46;8.60;;;2.70;;
13349;SDS011;6744;53.190;6.576;2023-05-24T08:19:12;8.47;;;2.30;;
13349;SDS011;6744;53.190;6.576;2023-05-24T08:21:37;7.87;;;2.40;;
13349;SDS011;6744;53.190;6.576;2023-05-24T08:24:02;5.87;;;2.30;;
13349;SDS011;6744;53.190;6.576;2023-05-24T08:26:30;6.33;;;2.00;;
13349;SDS011;6744;53.190;6.576;2023-05-24T08:28:56;5.50;;;2.00;;
13349;SDS011;6744;53.190;6.576;2023-05-24T08:31:21;7.93;;;2.30;;
13349;SDS011;6744;53.190;6.576;2023-05-24T08:33:46;5.13;;;2.10;;
13349;SDS011;6744;53.190;6.576;2023-05-24T08:36:14;6.03;;;2.33;;
13349;SDS011;6744;53.190;6.576;2023-05-24T08:38:41;5.63;;;2.67;;
13349;SDS011;6744;53.190;6.576;2023-05-24T08:41:06;5.80;;;2.43;;
13349;SDS011;6744;53.190;6.576;2023-05-24T08:43:32;7.10;;;2.53;;
13349;SDS011;6744;53.190;6.576;2023-05-24T08:45:57;5.03;;;2.37;;
13349;SDS011;6744;53.190;6.576;2023-05-24T08:48:24;4.43;;;1.90;;
13349;SDS011;6744;53.190;6.576;2023-05-24T08:50:49;7.17;;;2.33;;
13349;SDS011;6744;53.190;6.576;2023-05-24T08:53:15;5.97;;;2.30;;
13349;SDS011;6744;53.190;6.576;2023-05-24T08:55:41;5.90;;;2.30;;
13349;SDS011;6744;53.190;6.576;2023-05-24T08:58:07;6.90;;;2.30;;
13349;SDS011;6744;53.190;6.576;2023-05-24T09:00:33;8.07;;;2.50;;
13349;SDS011;6744;53.190;6.576;2023-05-24T09:02:58;7.67;;;2.53;;
13349;SDS011;6744;53.190;6.576;2023-05-24T09:05:24;12.13;;;2.77;;
13349;SDS011;6744;53.190;6.576;2023-05-24T09:07:49;5.17;;;2.70;;
13349;SDS011;6744;53.190;6.576;2023-05-24T09:10:15;7.17;;;2.80;;
13349;SDS011;6744;53.190;6.576;2023-05-24T09:12:44;9.97;;;3.40;;
13349;SDS011;6744;53.190;6.576;2023-05-24T09:15:12;8.23;;;2.80;;
13349;SDS011;6744;53.190;6.576;2023-05-24T09:17:38;7.33;;;2.70;;
13349;SDS011;6744;53.190;6.576;2023-05-24T09:20:05;5.80;;;2.77;;
13349;SDS011;6744;53.190;6.576;2023-05-24T09:22:32;9.70;;;3.33;;
13349;SDS011;6744;53.190;6.576;2023-05-24T09:25:02;7.23;;;2.60;;
13349;SDS011;6744;53.190;6.576;2023-05-24T09:27:30;6.70;;;3.17;;
13349;SDS011;6744;53.190;6.576;2023-05-24T09:29:56;8.43;;;3.00;;
13349;SDS011;6744;53.190;6.576;2023-05-24T09:32:21;8.10;;;2.57;;
13349;SDS011;6744;53.190;6.576;2023-05-24T09:34:51;9.13;;;3.63;;
13349;SDS011;6744;53.190;6.576;2023-05-24T09:37:19;9.30;;;3.10;;
13349;SDS011;6744;53.190;6.576;2023-05-24T09:39:46;7.43;;;2.97;;
13349;SDS011;6744;53.190;6.576;2023-05-24T09:42:20;8.33;;;2.97;;
13349;SDS011;6744;53.190;6.576;2023-05-24T09:45:01;7.97;;;3.13;;
13349;SDS011;6744;53.190;6.576;2023-05-24T09:47:31;6.33;;;2.30;;
13349;SDS011;6744;53.190;6.576;2023-05-24T09:49:57;6.37;;;2.60;;
13349;SDS011;6744;53.190;6.576;2023-05-24T09:52:28;7.60;;;3.20;;
13349;SDS011;6744;53.190;6.576;2023-05-24T09:54:54;7.97;;;2.90;;
13349;SDS011;6744;53.190;6.576;2023-05-24T09:57:19;7.43;;;3.10;;
13349;SDS011;6744;53.190;6.576;2023-05-24T09:59:49;8.53;;;2.83;;
13349;SDS011;6744;53.190;6.576;2023-05-24T10:02:16;8.23;;;2.93;;
13349;SDS011;6744;53.190;6.576;2023-05-24T10:04:45;8.33;;;2.60;;
13349;SDS011;6744;53.190;6.576;2023-05-24T10:07:11;8.17;;;2.80;;
13349;SDS011;6744;53.190;6.576;2023-05-24T10:09:36;6.67;;;2.63;;
13349;SDS011;6744;53.190;6.576;2023-05-24T10:12:02;5.90;;;2.53;;
13349;SDS011;6744;53.190;6.576;2023-05-24T10:14:30;6.67;;;2.37;;
13349;SDS011;6744;53.190;6.576;2023-05-24T10:16:57;5.90;;;2.30;;
13349;SDS011;6744;53.190;6.576;2023-05-24T10:19:22;6.87;;;2.40;;
13349;SDS011;6744;53.190;6.576;2023-05-24T10:21:48;6.00;;;2.43;;
13349;SDS011;6744;53.190;6.576;2023-05-24T10:24:16;6.37;;;2.40;;
13349;SDS011;6744;53.190;6.576;2023-05-24T10:26:43;6.17;;;2.77;;
13349;SDS011;6744;53.190;6.576;2023-05-24T10:29:15;7.13;;;2.50;;
13349;SDS011;6744;53.190;6.576;2023-05-24T10:31:44;6.90;;;2.37;;
13349;SDS011;6744;53.190;6.576;2023-05-24T10:34:13;6.10;;;2.30;;
13349;SDS011;6744;53.190;6.576;2023-05-24T10:36:39;5.57;;;2.43;;
13349;SDS011;6744;53.190;6.576;2023-05-24T10:39:06;7.63;;;2.77;;
13349;SDS011;6744;53.190;6.576;2023-05-24T10:41:39;7.07;;;2.40;;
13349;SDS011;6744;53.190;6.576;2023-05-24T10:44:11;5.83;;;2.60;;
13349;SDS011;6744;53.190;6.576;2023-05-24T10:47:00;7.83;;;3.00;;
13349;SDS011;6744;53.190;6.576;2023-05-24T10:49:36;10.03;;;3.07;;
13349;SDS011;6744;53.190;6.576;2023-05-24T10:52:16;9.03;;;3.10;;
13349;SDS011;6744;53.190;6.576;2023-05-24T10:54:59;7.97;;;2.87;;
13349;SDS011;6744;53.190;6.576;2023-05-24T10:57:28;7.97;;;2.50;;
13349;SDS011;6744;53.190;6.576;2023-05-24T10:59:55;10.80;;;3.17;;
13349;SDS011;6744;53.190;6.576;2023-05-24T11:02:21;8.23;;;2.73;;
13349;SDS011;6744;53.190;6.576;2023-05-24T11:04:46;7.47;;;2.80;;
13349;SDS011;6744;53.190;6.576;2023-05-24T11:07:14;5.00;;;2.70;;
13349;SDS011;6744;53.190;6.576;2023-05-24T11:09:40;6.97;;;2.50;;
13349;SDS011;6744;53.190;6.576;2023-05-24T11:12:17;6.83;;;2.70;;
13349;SDS011;6744;53.190;6.576;2023-05-24T11:14:47;6.73;;;2.73;;
13349;SDS011;6744;53.190;6.576;2023-05-24T11:17:13;7.87;;;3.20;;
13349;SDS011;6744;53.190;6.576;2023-05-24T11:19:46;9.13;;;2.87;;
13349;SDS011;6744;53.190;6.576;2023-05-24T11:22:14;5.33;;;2.73;;
13349;SDS011;6744;53.190;6.576;2023-05-24T11:24:45;7.77;;;2.63;;
13349;SDS011;6744;53.190;6.576;2023-05-24T11:27:11;7.63;;;2.70;;
13349;SDS011;6744;53.190;6.576;2023-05-24T11:29:41;6.43;;;2.23;;
13349;SDS011;6744;53.190;6.576;2023-05-24T11:32:07;7.80;;;3.00;;
13349;SDS011;6744;53.190;6.576;2023-05-24T11:34:33;6.43;;;2.47;;
13349;SDS011;6744;53.190;6.576;2023-05-24T11:36:59;7.10;;;2.60;;
13349;SDS011;6744;53.190;6.576;2023-05-24T11:39:32;8.40;;;2.50;;
13349;SDS011;6744;53.190;6.576;2023-05-24T11:41:59;9.07;;;2.97;;
13349;SDS011;6744;53.190;6.576;2023-05-24T11:44:28;8.07;;;2.70;;
13349;SDS011;6744;53.190;6.576;2023-05-24T11:47:01;6.50;;;2.67;;
13349;SDS011;6744;53.190;6.576;2023-05-24T11:49:27;6.73;;;2.60;;
13349;SDS011;6744;53.190;6.576;2023-05-24T11:51:53;3.80;;;2.13;;
13349;SDS011;6744;53.190;6.576;2023-05-24T11:54:21;8.70;;;2.93;;
13349;SDS011;6744;53.190;6.576;2023-05-24T11:56:46;7.00;;;2.87;;
13349;SDS011;6744;53.190;6.576;2023-05-24T11:59:15;6.23;;;3.13;;
13349;SDS011;6744;53.190;6.576;2023-05-24T12:01:43;7.83;;;2.50;;
13349;SDS011;6744;53.190;6.576;2023-05-24T12:04:08;7.40;;;2.70;;
13349;SDS011;6744;53.190;6.576;2023-05-24T12:06:35;6.13;;;2.37;;
13349;SDS011;6744;53.190;6.576;2023-05-24T12:09:01;9.20;;;2.90;;
13349;SDS011;6744;53.190;6.576;2023-05-24T12:11:29;8.00;;;2.67;;
13349;SDS011;6744;53.190;6.576;2023-05-24T12:13:56;7.40;;;2.90;;
13349;SDS011;6744;53.190;6.576;2023-05-24T12:16:22;8.50;;;2.73;;
13349;SDS011;6744;53.190;6.576;2023-05-24T12:18:48;8.83;;;2.87;;
13349;SDS011;6744;53.190;6.576;2023-05-24T12:21:16;6.43;;;2.33;;
13349;SDS011;6744;53.190;6.576;2023-05-24T12:23:41;10.70;;;3.13;;
13349;SDS011;6744;53.190;6.576;2023-05-24T12:26:06;8.33;;;3.13;;
13349;SDS011;6744;53.190;6.576;2023-05-24T12:28:32;9.23;;;2.83;;
13349;SDS011;6744;53.190;6.576;2023-05-24T12:31:02;8.93;;;2.93;;
13349;SDS011;6744;53.190;6.576;2023-05-24T12:33:29;5.73;;;2.60;;
13349;SDS011;6744;53.190;6.576;2023-05-24T12:35:55;6.07;;;2.50;;
13349;SDS011;6744;53.190;6.576;2023-05-24T12:38:22;6.73;;;2.63;;
13349;SDS011;6744;53.190;6.576;2023-05-24T12:40:49;10.57;;;2.87;;
13349;SDS011;6744;53.190;6.576;2023-05-24T12:43:15;6.83;;;2.70;;
13349;SDS011;6744;53.190;6.576;2023-05-24T12:45:42;10.53;;;3.10;;
13349;SDS011;6744;53.190;6.576;2023-05-24T12:48:07;9.33;;;3.30;;
13349;SDS011;6744;53.190;6.576;2023-05-24T12:50:33;7.93;;;2.53;;
13349;SDS011;6744;53.190;6.576;2023-05-24T12:52:58;8.87;;;2.80;;
13349;SDS011;6744;53.190;6.576;2023-05-24T12:55:25;4.90;;;2.57;;
13349;SDS011;6744;53.190;6.576;2023-05-24T12:57:51;7.37;;;2.40;;
13349;SDS011;6744;53.190;6.576;2023-05-24T13:00:18;6.13;;;2.23;;
13349;SDS011;6744;53.190;6.576;2023-05-24T13:02:45;6.27;;;2.50;;
13349;SDS011;6744;53.190;6.576;2023-05-24T13:05:10;7.40;;;2.50;;
13349;SDS011;6744;53.190;6.576;2023-05-24T13:07:36;7.20;;;2.33;;
13349;SDS011;6744;53.190;6.576;2023-05-24T13:10:04;7.43;;;2.60;;
13349;SDS011;6744;53.190;6.576;2023-05-24T13:12:30;5.53;;;2.37;;
13349;SDS011;6744;53.190;6.576;2023-05-24T13:14:56;7.57;;;2.50;;
13349;SDS011;6744;53.190;6.576;2023-05-24T13:17:21;7.33;;;2.60;;
13349;SDS011;6744;53.190;6.576;2023-05-24T13:19:47;6.80;;;2.70;;
13349;SDS011;6744;53.190;6.576;2023-05-24T13:22:12;4.93;;;2.27;;
13349;SDS011;6744;53.190;6.576;2023-05-24T13:24:38;8.63;;;2.93;;
13349;SDS011;6744;53.190;6.576;2023-05-24T13:27:03;7.70;;;2.47;;
13349;SDS011;6744;53.190;6.576;2023-05-24T13:29:29;8.53;;;2.73;;
13349;SDS011;6744;53.190;6.576;2023-05-24T13:31:54;4.50;;;2.20;;
13349;SDS011;6744;53.190;6.576;2023-05-24T13:34:20;5.63;;;2.40;;
13349;SDS011;6744;53.190;6.576;2023-05-24T13:36:48;6.07;;;2.00;;
13349;SDS011;6744;53.190;6.576;2023-05-24T13:39:13;6.50;;;2.80;;
13349;SDS011;6744;53.190;6.576;2023-05-24T13:41:39;6.90;;;2.60;;
13349;SDS011;6744;53.190;6.576;2023-05-24T13:44:04;6.90;;;2.93;;
13349;SDS011;6744;53.190;6.576;2023-05-24T13:46:31;7.93;;;2.80;;
13349;SDS011;6744;53.190;6.576;2023-05-24T13:48:56;6.33;;;2.47;;
13349;SDS011;6744;53.190;6.576;2023-05-24T13:51:22;7.50;;;2.60;;
13349;SDS011;6744;53.190;6.576;2023-05-24T13:53:48;7.77;;;2.53;;
13349;SDS011;6744;53.190;6.576;2023-05-24T13:56:14;9.73;;;3.20;;
13349;SDS011;6744;53.190;6.576;2023-05-24T13:58:40;6.07;;;2.40;;
13349;SDS011;6744;53.190;6.576;2023-05-24T14:01:05;6.00;;;2.53;;
13349;SDS011;6744;53.190;6.576;2023-05-24T14:03:31;6.57;;;2.60;;
13349;SDS011;6744;53.190;6.576;2023-05-24T14:05:57;6.90;;;2.93;;
13349;SDS011;6744;53.190;6.576;2023-05-24T14:08:22;5.03;;;2.47;;
13349;SDS011;6744;53.190;6.576;2023-05-24T14:10:47;5.53;;;2.40;;
13349;SDS011;6744;53.190;6.576;2023-05-24T14:13:14;8.17;;;2.70;;
13349;SDS011;6744;53.190;6.576;2023-05-24T14:15:39;5.60;;;2.50;;
13349;SDS011;6744;53.190;6.576;2023-05-24T14:18:05;6.70;;;2.60;;
13349;SDS011;6744;53.190;6.576;2023-05-24T14:20:32;4.37;;;2.07;;
13349;SDS011;6744;53.190;6.576;2023-05-24T14:22:58;6.80;;;2.60;;
13349;SDS011;6744;53.190;6.576;2023-05-24T14:25:23;4.80;;;2.43;;
13349;SDS011;6744;53.190;6.576;2023-05-24T14:27:49;4.10;;;2.13;;
13349;SDS011;6744;53.190;6.576;2023-05-24T14:30:14;5.73;;;2.40;;
13349;SDS011;6744;53.190;6.576;2023-05-24T14:32:39;6.33;;;2.40;;
13349;SDS011;6744;53.190;6.576;2023-05-24T14:35:05;6.10;;;2.10;;
13349;SDS011;6744;53.190;6.576;2023-05-24T14:37:30;8.40;;;2.60;;
13349;SDS011;6744;53.190;6.576;2023-05-24T14:39:56;6.50;;;2.50;;
13349;SDS011;6744;53.190;6.576;2023-05-24T14:42:24;7.00;;;2.63;;
13349;SDS011;6744;53.190;6.576;2023-05-24T14:44:49;4.00;;;1.93;;
13349;SDS011;6744;53.190;6.576;2023-05-24T14:47:15;4.73;;;2.20;;
13349;SDS011;6744;53.190;6.576;2023-05-24T14:49:43;5.23;;;2.13;;
13349;SDS011;6744;53.190;6.576;2023-05-24T14:52:09;6.97;;;2.40;;
13349;SDS011;6744;53.190;6.576;2023-05-24T14:54:34;5.43;;;2.20;;
13349;SDS011;6744;53.190;6.576;2023-05-24T14:57:00;3.83;;;1.90;;
13349;SDS011;6744;53.190;6.576;2023-05-24T14:59:26;6.70;;;2.50;;
13349;SDS011;6744;53.190;6.576;2023-05-24T15:01:51;6.30;;;2.23;;
13349;SDS011;6744;53.190;6.576;2023-05-24T15:04:16;6.93;;;2.43;;
13349;SDS011;6744;53.190;6.576;2023-05-24T15:06:42;5.90;;;2.40;;